Time;durP1;ratioP1;P1;durP2;ratioP2;P2;SDS_P1;SDS_P2;PMS_P1;PMS_P2;Temp;Humidity;BMP_temperature;BMP_pressure;BME280_temperature;BME280_humidity;BME280_pressure;Samples;Min_cycle;Max_cycle;Signal;HPM_P1;HPM_P2
2022/01/24 00:00:06;;;;;;;27.45;11.45;;;;;;;-0.35;100.00;95549.91;5012597;28;20038;-86
2022/01/24 00:02:32;;;;;;;25.20;10.45;;;;;;;-0.39;100.00;95549.44;4979966;28;20030;-86
2022/01/24 00:04:58;;;;;;;34.80;11.82;;;;;;;-0.40;100.00;95550.41;4997311;28;20026;-86
2022/01/24 00:07:24;;;;;;;27.25;11.55;;;;;;;-0.45;100.00;95550.91;4996016;28;20038;-86
2022/01/24 00:09:53;;;;;;;30.25;10.93;;;;;;;-0.44;100.00;95552.50;4997310;28;20026;-86
2022/01/24 00:12:37;;;;;;;23.60;9.90;;;;;;;-0.49;100.00;95556.59;5011725;28;20156;-86
2022/01/24 00:28:03;;;;;;;28.23;10.95;;;;;;;-0.38;100.00;95563.91;5010462;28;20103;-86
2022/01/24 00:30:29;;;;;;;27.98;10.57;;;;;;;-0.54;100.00;95567.38;5015508;28;20105;-86
2022/01/24 00:32:54;;;;;;;31.63;10.27;;;;;;;-0.57;100.00;95565.94;5015555;28;20124;-86
2022/01/24 00:35:20;;;;;;;28.10;10.18;;;;;;;-0.58;100.00;95576.38;5015335;28;20105;-86
2022/01/24 00:37:45;;;;;;;27.42;10.55;;;;;;;-0.61;100.00;95571.59;5015684;28;20049;-86
2022/01/24 00:40:11;;;;;;;21.85;9.10;;;;;;;-0.45;100.00;95578.44;5000095;28;20084;-86
2022/01/24 00:47:44;;;;;;;23.48;9.30;;;;;;;-0.72;100.00;95585.63;5015490;28;20040;-86
2022/01/24 00:55:23;;;;;;;32.97;14.32;;;;;;;-0.51;100.00;95585.06;4999027;28;20483;-86
2022/01/24 00:57:49;;;;;;;35.90;13.98;;;;;;;-0.51;100.00;95579.91;4998926;28;20526;-86
2022/01/24 01:00:14;;;;;;;34.65;13.20;;;;;;;-0.54;100.00;95577.69;4998828;28;20039;-86
2022/01/24 01:02:41;;;;;;;33.42;13.18;;;;;;;-0.45;100.00;95588.75;4998644;28;20027;-86
2022/01/24 01:18:47;;;;;;;27.60;11.07;;;;;;;-0.30;100.00;95579.34;5012427;28;20032;-86
2022/01/24 01:21:14;;;;;;;29.25;11.15;;;;;;;-0.28;100.00;95568.88;5014375;28;20030;-86
2022/01/24 01:23:50;;;;;;;32.28;11.07;;;;;;;-0.26;100.00;95577.22;4998238;28;20462;-86
2022/01/24 01:26:31;;;;;;;27.58;10.52;;;;;;;-0.37;100.00;95572.44;5014145;28;20464;-86
2022/01/24 01:29:03;;;;;;;29.65;11.30;;;;;;;-0.33;100.00;95574.53;4998405;28;20058;-86
2022/01/24 01:31:51;;;;;;;32.17;11.65;;;;;;;-0.30;100.00;95578.53;4983122;28;20034;-86
2022/01/24 01:58:06;;;;;;;27.30;10.85;;;;;;;-0.35;100.00;95553.31;5012839;28;20120;-86
2022/01/24 02:00:34;;;;;;;28.70;10.82;;;;;;;-0.46;100.00;95551.09;4997585;28;20034;-86
2022/01/24 02:03:00;;;;;;;27.10;11.30;;;;;;;-0.21;100.00;95549.19;4981575;28;20038;-86
2022/01/24 02:05:26;;;;;;;28.85;10.77;;;;;;;-0.41;100.00;95548.03;4981370;28;20030;-86
2022/01/24 02:07:52;;;;;;;23.42;10.15;;;;;;;-0.30;100.00;95547.63;4998555;28;20432;-86
2022/01/24 02:10:20;;;;;;;21.75;8.48;;;;;;;-0.47;100.00;95552.84;5013465;28;20037;-86
2022/01/24 02:12:46;;;;;;;15.10;6.50;;;;;;;-0.44;100.00;95544.78;5013622;28;20039;-86
2022/01/24 02:15:16;;;;;;;20.17;7.15;;;;;;;-0.38;100.00;95553.63;4997385;28;20044;-86
2022/01/24 02:17:59;;;;;;;22.52;7.47;;;;;;;-0.37;100.00;95539.75;5013019;28;20030;-86
2022/01/24 02:20:41;;;;;;;16.70;6.13;;;;;;;-0.40;100.00;95552.97;5011187;28;20032;-86
2022/01/24 02:25:44;;;;;;;23.33;8.68;;;;;;;-0.11;100.00;95541.22;4977900;28;20384;-86
2022/01/24 02:28:12;;;;;;;21.90;8.23;;;;;;;0.04;100.00;95538.72;4974125;28;20029;-86
2022/01/24 02:33:06;;;;;;;19.85;7.65;;;;;;;-0.19;100.00;95534.34;4977721;28;20053;-86
2022/01/24 02:35:31;;;;;;;17.40;6.80;;;;;;;-0.30;100.00;95532.16;4961870;28;20034;-86
2022/01/24 02:38:01;;;;;;;15.10;6.75;;;;;;;-0.10;100.00;95540.25;4961571;28;20037;-86
2022/01/24 02:40:27;;;;;;;21.00;8.23;;;;;;;-0.07;100.00;95533.97;4962040;28;20053;-86
2022/01/24 02:48:24;;;;;;;16.02;5.45;;;;;;;-0.18;100.00;95537.75;4977391;28;20042;-86
2022/01/24 02:53:30;;;;;;;16.92;5.32;;;;;;;0.23;100.00;95523.75;4992464;28;20034;-86
2022/01/24 02:55:55;;;;;;;13.77;5.22;;;;;;;0.59;100.00;95530.88;4961318;28;20060;-86
2022/01/24 02:58:21;;;;;;;9.68;4.65;;;;;;;0.55;100.00;95525.28;4977072;28;20113;-86
2022/01/24 03:00:47;;;;;;;11.02;4.10;;;;;;;0.90;100.00;95522.19;4961288;28;20035;-86
2022/01/24 03:03:13;;;;;;;10.18;4.47;;;;;;;0.93;100.00;95521.84;4977195;28;20044;-86
2022/01/24 03:05:39;;;;;;;11.90;5.07;;;;;;;0.78;100.00;95519.22;4976896;28;20031;-86
2022/01/24 03:08:06;;;;;;;10.10;4.55;;;;;;;0.72;100.00;95513.97;4961064;28;20344;-86
2022/01/24 03:10:39;;;;;;;16.17;6.38;;;;;;;0.61;100.00;95520.38;4976779;28;20038;-86
2022/01/24 03:15:43;;;;;;;22.50;7.18;;;;;;;0.32;100.00;95525.31;4976936;28;20085;-86
2022/01/24 03:18:10;;;;;;;13.10;6.18;;;;;;;0.20;100.00;95524.13;4976986;28;20130;-86
2022/01/24 03:20:36;;;;;;;16.95;6.20;;;;;;;0.13;100.00;95524.00;4976625;28;20031;-86
2022/01/24 03:23:03;;;;;;;13.95;5.97;;;;;;;-0.08;100.00;95527.22;4976561;28;20046;-86
2022/01/24 03:25:28;;;;;;;13.63;5.82;;;;;;;-0.37;100.00;95519.16;4976737;28;20050;-86
2022/01/24 03:27:54;;;;;;;14.77;5.32;;;;;;;-0.58;100.00;95519.75;4976706;28;20070;-86
2022/01/24 03:30:19;;;;;;;13.05;5.65;;;;;;;-0.66;100.00;95524.97;4977084;28;20246;-86
2022/01/24 03:32:45;;;;;;;16.30;6.57;;;;;;;-0.69;100.00;95522.72;4976633;28;20062;-86
2022/01/24 03:35:10;;;;;;;17.67;6.95;;;;;;;-0.58;100.00;95517.19;4960674;28;20084;-86
2022/01/24 03:37:37;;;;;;;16.20;6.45;;;;;;;-0.37;100.00;95520.94;4960651;28;20031;-86
2022/01/24 03:40:07;;;;;;;15.15;6.55;;;;;;;0.09;100.00;95520.97;4992756;28;20035;-86
2022/01/24 03:42:32;;;;;;;17.02;7.20;;;;;;;-0.08;100.00;95532.38;4976468;28;20455;-86
2022/01/24 03:45:02;;;;;;;14.40;6.18;;;;;;;-0.12;100.00;95523.38;4976538;28;20027;-86
2022/01/24 03:50:17;;;;;;;15.00;6.88;;;;;;;-0.29;100.00;95513.16;4976557;28;20037;-86
2022/01/24 03:52:46;;;;;;;12.38;5.00;;;;;;;-0.20;100.00;95521.66;4961101;28;20041;-86
2022/01/24 03:55:12;;;;;;;10.63;5.22;;;;;;;-0.15;100.00;95514.22;4976717;28;20045;-86
2022/01/24 03:57:38;;;;;;;11.85;5.25;;;;;;;-0.32;100.00;95508.34;4960563;28;20035;-86
2022/01/24 04:00:05;;;;;;;12.88;6.22;;;;;;;-0.37;100.00;95508.06;4992660;28;20038;-86
2022/01/24 04:02:31;;;;;;;12.60;5.25;;;;;;;-0.20;100.00;95514.72;4977628;28;20035;-86
2022/01/24 04:04:56;;;;;;;13.80;5.40;;;;;;;-0.33;100.00;95512.72;4970464;28;20037;-86
2022/01/24 04:07:22;;;;;;;12.60;5.43;;;;;;;-0.34;100.00;95507.72;4982951;28;20039;-86
2022/01/24 04:09:48;;;;;;;13.75;5.28;;;;;;;-0.43;100.00;95512.13;4976182;28;20053;-86
2022/01/24 04:12:15;;;;;;;15.07;5.90;;;;;;;-0.47;100.00;95509.09;4994189;28;20061;-87
2022/01/24 04:22:15;;;;;;;9.35;4.85;;;;;;;-0.07;100.00;95500.47;5015532;28;20051;-86
2022/01/24 04:24:41;;;;;;;12.90;5.47;;;;;;;-0.10;100.00;95505.97;4999240;28;20030;-86
2022/01/24 04:27:08;;;;;;;15.23;5.82;;;;;;;-0.06;100.00;95507.22;4999450;28;20417;-86
2022/01/24 04:29:34;;;;;;;12.60;5.90;;;;;;;-0.09;100.00;95507.59;4999215;28;20038;-86
2022/01/24 04:32:00;;;;;;;13.60;5.90;;;;;;;-0.08;100.00;95509.97;4999044;28;20034;-86
2022/01/24 04:34:25;;;;;;;18.45;5.68;;;;;;;-0.25;100.00;95511.06;4999045;28;20034;-86
2022/01/24 04:36:51;;;;;;;16.77;6.45;;;;;;;-0.20;100.00;95506.22;4999081;28;20100;-86
2022/01/24 04:39:17;;;;;;;17.77;6.03;;;;;;;-0.13;100.00;95503.75;4998997;28;20056;-86
2022/01/24 04:41:46;;;;;;;11.93;5.25;;;;;;;-0.26;100.00;95504.31;5015137;28;20443;-86
2022/01/24 04:46:49;;;;;;;15.82;6.38;;;;;;;-0.50;100.00;95504.28;4999325;28;20329;-86
2022/01/24 04:54:42;;;;;;;15.32;6.60;;;;;;;-0.09;100.00;95500.63;4998398;28;20042;-86
2022/01/24 04:57:11;;;;;;;19.10;6.47;;;;;;;-0.15;100.00;95494.38;4998759;28;20117;-86
2022/01/24 04:59:41;;;;;;;16.15;6.78;;;;;;;-0.20;100.00;95498.47;4982586;28;20026;-86
2022/01/24 05:02:08;;;;;;;13.48;6.10;;;;;;;-0.16;100.00;95497.16;4998498;28;20140;-86
2022/01/24 05:04:34;;;;;;;19.60;6.80;;;;;;;-0.09;100.00;95497.28;4982449;28;20040;-86
2022/01/24 05:06:59;;;;;;;14.80;6.55;;;;;;;-0.01;100.00;95499.78;5014750;28;20034;-86
2022/01/24 05:09:27;;;;;;;14.68;6.40;;;;;;;-0.06;100.00;95497.75;4998541;28;20034;-86
2022/01/24 05:11:59;;;;;;;16.23;6.55;;;;;;;-0.06;100.00;95496.94;4998299;28;20053;-86
2022/01/24 05:25:20;;;;;;;11.25;5.00;;;;;;;0.00;100.00;95501.41;5012736;28;20085;-87
2022/01/24 05:27:46;;;;;;;14.85;5.10;;;;;;;0.13;100.00;95498.22;4998762;28;20030;-87
2022/01/24 05:30:13;;;;;;;11.98;4.95;;;;;;;-0.11;100.00;95500.00;4982381;28;20117;-87
2022/01/24 05:32:39;;;;;;;9.10;4.50;;;;;;;-0.29;100.00;95503.66;4998689;28;20054;-87
2022/01/24 05:35:04;;;;;;;16.90;4.70;;;;;;;-0.22;100.00;95503.78;4998453;28;20464;-87
2022/01/24 05:37:30;;;;;;;8.20;4.75;;;;;;;-0.14;100.00;95502.94;4982760;28;20128;-87
2022/01/24 05:39:55;;;;;;;11.80;4.70;;;;;;;-0.12;100.00;95502.78;4982400;28;20026;-87
2022/01/24 05:42:21;;;;;;;16.50;5.75;;;;;;;-0.20;100.00;95506.22;4982163;28;20335;-87
2022/01/24 05:44:49;;;;;;;12.70;5.07;;;;;;;-0.32;100.00;95498.88;4998436;28;20018;-87
2022/01/24 05:47:15;;;;;;;12.60;5.22;;;;;;;-0.41;100.00;95502.47;4981923;28;20336;-86
2022/01/24 05:49:41;;;;;;;12.88;5.53;;;;;;;-0.36;100.00;95497.63;4978563;28;20037;-87
2022/01/24 05:52:09;;;;;;;12.63;5.55;;;;;;;-0.32;100.00;95506.59;4997905;28;20351;-86
2022/01/24 05:54:36;;;;;;;11.93;5.35;;;;;;;-0.38;100.00;95502.09;4997641;28;20069;-86
2022/01/24 05:57:02;;;;;;;10.82;4.85;;;;;;;-0.53;100.00;95504.63;4997621;28;20034;-86
2022/01/24 05:59:28;;;;;;;9.77;4.55;;;;;;;-0.57;100.00;95508.50;4997895;28;20120;-86
2022/01/24 06:01:53;;;;;;;12.48;5.90;;;;;;;-0.47;100.00;95505.72;4997465;28;20030;-88
2022/01/24 06:04:19;;;;;;;15.35;5.70;;;;;;;-0.46;100.00;95513.25;4997947;28;20081;-87
2022/01/24 06:06:44;;;;;;;12.32;5.45;;;;;;;-0.38;100.00;95517.56;4997711;28;20036;-86
2022/01/24 06:09:09;;;;;;;13.90;5.22;;;;;;;-0.11;100.00;95518.03;4997410;28;20030;-86
2022/01/24 06:11:36;;;;;;;14.63;5.30;;;;;;;-0.37;100.00;95511.44;4981991;28;20058;-87
2022/01/24 06:14:03;;;;;;;18.05;5.40;;;;;;;-0.29;100.00;95513.97;4981553;28;20355;-86
2022/01/24 06:16:29;;;;;;;13.00;5.28;;;;;;;-0.46;100.00;95512.47;4997294;28;20036;-86
2022/01/24 06:18:55;;;;;;;12.90;5.78;;;;;;;-0.53;100.00;95521.81;4997105;28;20038;-86
2022/01/24 06:21:20;;;;;;;11.60;5.50;;;;;;;-0.43;100.00;95515.53;4980825;28;20084;-86
2022/01/24 06:23:45;;;;;;;11.18;5.40;;;;;;;-0.52;100.00;95524.25;4980877;28;20089;-86
2022/01/24 06:26:11;;;;;;;12.52;5.60;;;;;;;-0.70;100.00;95523.69;4996836;28;20345;-86
2022/01/24 06:28:37;;;;;;;10.55;5.18;;;;;;;-0.66;100.00;95522.38;4997405;28;20041;-86
2022/01/24 06:31:02;;;;;;;23.40;7.40;;;;;;;-0.59;100.00;95518.16;4980756;28;20030;-86
2022/01/24 06:33:28;;;;;;;15.63;5.45;;;;;;;-0.52;100.00;95519.09;4981047;28;20037;-86
2022/01/24 06:35:53;;;;;;;12.55;5.22;;;;;;;-0.40;100.00;95523.88;4997062;28;20038;-86
2022/01/24 06:38:19;;;;;;;12.20;5.68;;;;;;;-0.41;100.00;95530.00;4981042;28;20030;-86
2022/01/24 06:40:44;;;;;;;13.85;6.15;;;;;;;-0.34;100.00;95533.47;4996717;28;20041;-86
2022/01/24 06:43:10;;;;;;;16.08;5.65;;;;;;;-0.28;100.00;95543.13;5013490;28;20042;-87
2022/01/24 06:45:35;;;;;;;11.43;4.63;;;;;;;-0.13;100.00;95537.25;4998455;28;20033;-87
2022/01/24 06:48:01;;;;;;;11.63;5.07;;;;;;;-0.13;100.00;95542.41;4997096;28;20041;-87
2022/01/24 06:50:26;;;;;;;11.93;5.30;;;;;;;-0.24;100.00;95543.56;4997010;28;20084;-87
2022/01/24 06:52:52;;;;;;;12.73;5.55;;;;;;;-0.33;100.00;95547.97;5012961;28;20037;-87
2022/01/24 06:55:17;;;;;;;12.27;5.53;;;;;;;-0.45;100.00;95548.34;4996924;28;20038;-86
2022/01/24 06:57:43;;;;;;;10.52;5.38;;;;;;;-0.54;100.00;95546.78;4980621;28;20038;-86
2022/01/24 07:00:09;;;;;;;17.58;5.80;;;;;;;-0.61;100.00;95543.25;4997857;28;20041;-86
2022/01/24 07:02:34;;;;;;;14.18;5.82;;;;;;;-0.60;100.00;95544.88;4996769;28;20150;-87
2022/01/24 07:05:00;;;;;;;17.23;6.10;;;;;;;-0.66;100.00;95553.28;5013257;28;20392;-87
2022/01/24 07:07:25;;;;;;;13.95;5.55;;;;;;;-0.60;100.00;95552.59;5013133;28;20341;-87
2022/01/24 07:09:52;;;;;;;16.50;6.20;;;;;;;-0.57;100.00;95558.22;5013184;28;20443;-87
2022/01/24 07:12:17;;;;;;;11.05;5.20;;;;;;;-0.46;100.00;95559.59;4996806;28;20079;-87
2022/01/24 07:14:44;;;;;;;15.02;5.90;;;;;;;-0.31;100.00;95554.56;4996790;28;20132;-87
2022/01/24 07:20:01;;;;;;;18.13;7.50;;;;;;;-0.12;100.00;95560.25;4994591;28;20057;-87
2022/01/24 07:22:26;;;;;;;19.73;7.63;;;;;;;-0.10;100.00;95567.81;5012583;28;20034;-87
2022/01/24 07:24:52;;;;;;;22.17;8.90;;;;;;;0.07;100.00;95568.50;4996662;28;20026;-87
2022/01/24 07:27:17;;;;;;;16.98;7.50;;;;;;;0.18;100.00;95570.69;4996705;28;20420;-87
2022/01/24 07:29:45;;;;;;;16.85;6.90;;;;;;;0.31;100.00;95564.16;4996467;28;20161;-87
2022/01/24 07:32:13;;;;;;;11.80;5.45;;;;;;;0.38;100.00;95565.06;4996393;28;20077;-87
2022/01/24 07:34:38;;;;;;;13.98;5.88;;;;;;;0.53;100.00;95562.53;4996656;28;20035;-87
2022/01/24 07:37:04;;;;;;;14.48;5.60;;;;;;;0.60;100.00;95573.75;4996686;28;20030;-87
2022/01/24 07:39:31;;;;;;;11.30;5.85;;;;;;;0.55;100.00;95566.53;4999795;28;20089;-87
2022/01/24 07:42:03;;;;;;;14.32;5.82;;;;;;;0.49;100.00;95561.28;5000612;28;20035;-87
2022/01/24 07:44:28;;;;;;;16.42;6.75;;;;;;;0.54;100.00;95569.28;5000565;28;20026;-87
2022/01/24 07:46:54;;;;;;;15.02;5.97;;;;;;;0.56;100.00;95568.13;4984474;28;20041;-87
2022/01/24 07:49:19;;;;;;;16.73;6.05;;;;;;;0.58;100.00;95567.97;5000622;28;20026;-87
2022/01/24 07:51:44;;;;;;;17.55;6.47;;;;;;;0.55;100.00;95569.13;4984164;28;20034;-87
2022/01/24 07:54:11;;;;;;;18.92;7.72;;;;;;;0.60;100.00;95563.44;5016609;28;20030;-87
2022/01/24 07:56:37;;;;;;;21.17;8.45;;;;;;;0.64;100.00;95564.69;5016706;28;20058;-87
2022/01/24 07:59:03;;;;;;;21.60;8.82;;;;;;;0.67;100.00;95571.28;5016675;28;20026;-87
2022/01/24 08:01:28;;;;;;;17.85;7.40;;;;;;;0.74;100.00;95574.75;5000277;28;20033;-87
2022/01/24 08:03:54;;;;;;;17.98;7.97;;;;;;;0.85;100.00;95573.50;5000247;28;20736;-87
2022/01/24 08:06:20;;;;;;;14.65;7.00;;;;;;;0.90;100.00;95578.16;5000368;28;20026;-87
2022/01/24 08:08:46;;;;;;;15.63;7.28;;;;;;;0.92;100.00;95576.19;4984019;28;20033;-87
2022/01/24 08:11:11;;;;;;;16.67;7.50;;;;;;;1.05;100.00;95576.38;5000196;28;20137;-87
2022/01/24 08:13:37;;;;;;;16.05;7.20;;;;;;;1.12;100.00;95581.63;4984032;28;20104;-87
2022/01/24 08:16:03;;;;;;;15.02;7.05;;;;;;;1.18;100.00;95588.69;5000041;28;20416;-87
2022/01/24 08:18:29;;;;;;;18.77;7.30;;;;;;;1.23;100.00;95585.59;4983811;28;20030;-87
2022/01/24 08:20:54;;;;;;;12.65;6.30;;;;;;;1.31;100.00;95587.28;4999911;28;20030;-87
2022/01/24 08:23:20;;;;;;;17.33;7.60;;;;;;;1.48;100.00;95585.28;4999989;28;20026;-87
2022/01/24 08:25:46;;;;;;;17.50;8.55;;;;;;;1.60;100.00;95594.19;5016106;28;20030;-87
2022/01/24 08:28:12;;;;;;;20.52;8.95;;;;;;;1.63;100.00;95593.03;4999696;28;20359;-87
2022/01/24 08:30:37;;;;;;;18.35;9.02;;;;;;;1.70;100.00;95593.91;4999790;28;20052;-87
2022/01/24 08:33:03;;;;;;;18.67;7.25;;;;;;;1.75;100.00;95606.28;4983611;28;20037;-87
2022/01/24 08:35:28;;;;;;;16.30;7.38;;;;;;;1.70;100.00;95606.81;4983441;28;20026;-87
2022/01/24 08:37:54;;;;;;;15.80;6.55;;;;;;;1.80;100.00;95603.97;5016011;28;20037;-87
2022/01/24 08:40:24;;;;;;;14.45;6.63;;;;;;;2.14;100.00;95604.31;4983384;28;20132;-87
2022/01/24 08:43:03;;;;;;;13.35;5.80;;;;;;;2.59;100.00;95599.78;4984126;28;20034;-87
2022/01/24 08:45:48;;;;;;;11.40;5.80;;;;;;;2.93;100.00;95605.22;4999721;28;20033;-87
2022/01/24 08:48:20;;;;;;;11.68;5.45;;;;;;;3.06;100.00;95604.53;4999228;28;20575;-88
2022/01/24 08:50:48;;;;;;;13.70;5.75;;;;;;;3.33;100.00;95613.25;4982678;28;20026;-87
2022/01/24 08:53:14;;;;;;;12.73;5.80;;;;;;;3.32;100.00;95596.13;4999322;28;20041;-88
2022/01/24 08:55:39;;;;;;;15.32;6.03;;;;;;;3.40;100.00;95600.34;4982735;28;20030;-87
2022/01/24 08:58:07;;;;;;;15.60;5.80;;;;;;;3.52;100.00;95595.44;4999369;28;20038;-87
2022/01/24 09:00:32;;;;;;;18.40;5.93;;;;;;;3.77;100.00;95602.69;4998978;28;20039;-87
2022/01/24 09:02:58;;;;;;;12.85;6.10;;;;;;;3.69;100.00;95595.88;4999216;28;20030;-87
2022/01/24 09:05:24;;;;;;;14.10;6.63;;;;;;;3.86;100.00;95595.56;4999498;28;20073;-87
2022/01/24 09:07:53;;;;;;;15.05;6.40;;;;;;;3.75;100.00;95597.72;4999474;28;20026;-87
2022/01/24 09:10:19;;;;;;;16.58;6.32;;;;;;;3.73;100.00;95593.72;5015139;28;20033;-87
2022/01/24 09:12:45;;;;;;;16.52;5.80;;;;;;;3.58;100.00;95599.03;5015266;28;20129;-88
2022/01/24 09:15:11;;;;;;;16.65;6.35;;;;;;;3.43;100.00;95597.34;5014730;28;20487;-87
2022/01/24 09:17:37;;;;;;;14.93;6.15;;;;;;;3.50;100.00;95600.78;5015056;28;20048;-87
2022/01/24 09:20:04;;;;;;;11.05;5.20;;;;;;;3.50;100.00;95605.97;5015097;28;20030;-87
2022/01/24 09:22:30;;;;;;;11.60;5.63;;;;;;;3.47;100.00;95598.59;4982273;28;20034;-87
2022/01/24 09:24:55;;;;;;;16.38;5.82;;;;;;;3.33;100.00;95610.66;5014964;28;20026;-87
2022/01/24 09:27:21;;;;;;;14.40;6.10;;;;;;;3.26;100.00;95615.00;5014860;28;20331;-87
2022/01/24 09:29:48;;;;;;;15.48;5.68;;;;;;;3.26;100.00;95620.19;4998736;28;20416;-87
2022/01/24 09:32:14;;;;;;;12.50;5.53;;;;;;;3.18;100.00;95620.34;4998414;28;20085;-89
2022/01/24 09:34:39;;;;;;;15.95;6.43;;;;;;;3.16;100.00;95627.50;4998600;28;20380;-89
2022/01/24 09:37:04;;;;;;;13.02;6.60;;;;;;;3.26;100.00;95622.78;4998630;28;20030;-89
2022/01/24 09:39:30;;;;;;;13.88;6.35;;;;;;;3.08;100.00;95620.66;5014813;28;20113;-88
2022/01/24 09:41:55;;;;;;;19.90;7.07;;;;;;;3.12;100.00;95627.06;4998646;28;20026;-89
2022/01/24 09:44:21;;;;;;;14.48;7.05;;;;;;;3.31;100.00;95627.41;4982438;28;20080;-89
2022/01/24 09:46:46;;;;;;;15.18;7.18;;;;;;;3.36;100.00;95630.22;4982294;28;20097;-86
2022/01/24 09:49:13;;;;;;;20.35;8.35;;;;;;;3.53;100.00;95636.69;4982039;28;20379;-89
2022/01/24 09:51:39;;;;;;;17.40;8.23;;;;;;;3.57;100.00;95629.34;4978053;28;20033;-89
2022/01/24 09:54:06;;;;;;;20.73;7.82;;;;;;;3.52;100.00;95642.06;4994829;28;20042;-89
2022/01/24 09:56:33;;;;;;;16.25;7.57;;;;;;;3.64;100.00;95643.13;4962268;28;20026;-89
2022/01/24 09:58:59;;;;;;;18.02;7.82;;;;;;;3.63;100.00;95638.94;4978857;28;20042;-89
2022/01/24 10:01:25;;;;;;;21.92;9.23;;;;;;;3.76;100.00;95637.41;4977873;28;20137;-89
2022/01/24 10:04:11;;;;;;;22.13;8.70;;;;;;;3.65;100.00;95630.97;4962507;28;20054;-89
2022/01/24 10:06:59;;;;;;;19.08;8.68;;;;;;;3.73;100.00;95635.19;4978115;28;20078;-89
2022/01/24 10:09:36;;;;;;;22.27;9.38;;;;;;;3.76;100.00;95633.03;4961995;28;20035;-89
2022/01/24 10:17:41;;;;;;;22.33;10.35;;;;;;;3.88;100.00;95624.69;4992066;28;20594;-89
2022/01/24 10:20:21;;;;;;;25.75;9.93;;;;;;;4.08;100.00;95628.16;4977890;28;20254;-89
2022/01/24 10:23:15;;;;;;;26.55;10.55;;;;;;;4.06;100.00;95629.34;4977825;28;20058;-89
2022/01/24 10:26:00;;;;;;;29.02;12.13;;;;;;;4.29;100.00;95633.41;4977959;28;20030;-88
2022/01/24 10:28:39;;;;;;;24.77;13.45;;;;;;;4.39;100.00;95623.47;4978364;28;20409;-89
2022/01/24 10:31:28;;;;;;;27.10;11.38;;;;;;;4.33;100.00;95622.44;4993992;28;20030;-89
2022/01/24 10:34:13;;;;;;;26.80;12.35;;;;;;;4.42;100.00;95623.06;4961904;28;20035;-89
2022/01/24 10:36:46;;;;;;;21.17;11.25;;;;;;;4.28;100.00;95613.66;4963186;28;20030;-86
2022/01/24 10:45:18;;;;;;;22.63;11.43;;;;;;;4.74;100.00;95617.31;4993148;28;20031;-89
2022/01/24 10:47:47;;;;;;;24.02;11.55;;;;;;;4.61;100.00;95613.72;4977871;28;20053;-89
2022/01/24 10:50:23;;;;;;;25.80;11.75;;;;;;;4.78;100.00;95619.28;4978475;28;20030;-89
2022/01/24 10:52:49;;;;;;;23.13;11.05;;;;;;;4.74;100.00;95612.13;4998289;28;20113;-89
2022/01/24 10:55:28;;;;;;;21.52;11.05;;;;;;;4.58;100.00;95614.06;5013004;28;20040;-88
2022/01/24 10:58:08;;;;;;;24.40;11.50;;;;;;;4.65;100.00;95614.91;4980419;28;20037;-89
2022/01/24 11:00:36;;;;;;;25.50;12.13;;;;;;;4.63;100.00;95605.69;4980329;28;20030;-89
2022/01/24 11:03:06;;;;;;;31.90;12.13;;;;;;;4.66;100.00;95605.28;4980636;28;20037;-88
2022/01/24 11:05:37;;;;;;;25.83;11.32;;;;;;;4.82;100.00;95604.13;4996440;28;20101;-89
2022/01/24 11:08:09;;;;;;;25.67;12.23;;;;;;;4.80;100.00;95599.13;4980688;28;20035;-88
2022/01/24 11:10:37;;;;;;;27.58;12.05;;;;;;;4.83;100.00;95608.31;4996546;28;20030;-89
2022/01/24 11:13:05;;;;;;;25.50;12.43;;;;;;;4.88;100.00;95607.72;4995872;28;20103;-89
2022/01/24 11:15:30;;;;;;;31.25;13.52;;;;;;;4.82;100.00;95606.72;4995781;28;20057;-86
2022/01/24 11:17:58;;;;;;;28.75;13.02;;;;;;;4.88;100.00;95607.72;4988151;28;20068;-88
2022/01/24 11:20:29;;;;;;;26.48;13.93;;;;;;;4.92;100.00;95612.31;4986565;28;20039;-88
2022/01/24 11:22:59;;;;;;;34.30;13.32;;;;;;;4.88;100.00;95603.34;4993414;28;20093;-88
2022/01/24 11:25:27;;;;;;;27.83;13.73;;;;;;;4.97;100.00;95600.50;4986946;28;20038;-88
2022/01/24 11:27:52;;;;;;;31.75;13.90;;;;;;;5.15;100.00;95600.69;4978143;28;20031;-88
2022/01/24 11:30:23;;;;;;;30.15;14.30;;;;;;;5.08;100.00;95599.91;4960953;28;20037;-88
2022/01/24 11:33:01;;;;;;;27.35;14.20;;;;;;;5.17;100.00;95592.72;4961090;28;20130;-88
2022/01/24 11:35:54;;;;;;;29.73;14.93;;;;;;;5.29;100.00;95590.28;4960983;28;20035;-88
2022/01/24 11:38:33;;;;;;;33.65;15.40;;;;;;;5.34;100.00;95591.25;4961541;28;20057;-87
2022/01/24 11:41:05;;;;;;;39.25;16.48;;;;;;;5.34;100.00;95586.06;4961052;28;20038;-88
2022/01/24 11:43:37;;;;;;;32.33;16.02;;;;;;;5.45;100.00;95582.06;4977092;28;20314;-88
2022/01/24 11:46:07;;;;;;;29.48;15.27;;;;;;;5.47;100.00;95576.66;4976928;28;20027;-88
2022/01/24 11:48:38;;;;;;;31.50;15.65;;;;;;;5.54;100.00;95574.03;4961197;28;20035;-88
2022/01/24 11:51:07;;;;;;;33.35;16.52;;;;;;;5.63;100.00;95570.19;5005759;28;20034;-87
2022/01/24 11:53:37;;;;;;;34.10;17.10;;;;;;;5.59;100.00;95574.19;4996241;28;20026;-88
2022/01/24 11:56:36;;;;;;;32.72;15.88;;;;;;;5.55;100.00;95570.41;4980280;28;20036;-88
2022/01/24 11:59:22;;;;;;;38.75;16.65;;;;;;;5.50;100.00;95568.44;4996348;28;20030;-88
2022/01/24 12:02:08;;;;;;;34.38;15.68;;;;;;;5.50;100.00;95560.63;4996614;28;20149;-86
2022/01/24 12:04:55;;;;;;;36.97;17.50;;;;;;;5.82;100.00;95558.13;4996727;28;20448;-86
2022/01/24 12:07:22;;;;;;;40.10;17.77;;;;;;;5.83;100.00;95567.53;4979969;28;20026;-88
2022/01/24 12:09:48;;;;;;;35.95;16.00;;;;;;;5.84;100.00;95558.72;4979662;28;20033;-88
2022/01/24 12:12:48;;;;;;;34.13;16.52;;;;;;;6.02;100.00;95559.84;4996191;28;20343;-88
2022/01/24 12:15:36;;;;;;;31.23;15.63;;;;;;;5.99;100.00;95562.84;4980209;28;20395;-88
2022/01/24 12:18:02;;;;;;;38.88;17.30;;;;;;;5.94;100.00;95559.03;4996015;28;20034;-88
2022/01/24 12:20:30;;;;;;;34.03;16.88;;;;;;;5.97;100.00;95563.03;4995865;28;20034;-87
2022/01/24 12:23:16;;;;;;;34.35;16.77;;;;;;;5.96;100.00;95556.25;4995846;28;20034;-87
2022/01/24 12:26:00;;;;;;;34.55;16.45;;;;;;;5.93;100.00;95554.06;4992036;28;20129;-88
2022/01/24 12:28:29;;;;;;;31.35;16.20;;;;;;;6.02;100.00;95558.03;5000375;28;20030;-88
2022/01/24 12:31:07;;;;;;;38.65;16.70;;;;;;;6.19;100.00;95560.16;4983560;28;20034;-88
2022/01/24 12:33:42;;;;;;;37.97;16.20;;;;;;;6.32;100.00;95554.88;4983604;28;20034;-88
2022/01/24 12:36:12;;;;;;;36.65;15.98;;;;;;;6.30;100.00;95551.66;4999272;28;20157;-88
2022/01/24 12:38:51;;;;;;;39.72;17.90;;;;;;;6.23;100.00;95556.13;4999088;28;20125;-88
2022/01/24 12:41:17;;;;;;;38.67;17.40;;;;;;;6.34;100.00;95546.84;4983091;28;20329;-88
2022/01/24 12:43:58;;;;;;;34.45;16.15;;;;;;;6.25;100.00;95548.13;4999229;28;20041;-88
2022/01/24 12:46:26;;;;;;;36.28;17.60;;;;;;;6.30;100.00;95541.25;4999411;28;20126;-88
2022/01/24 12:48:53;;;;;;;34.92;17.35;;;;;;;6.57;100.00;95543.66;4999337;28;20317;-88
2022/01/24 12:51:22;;;;;;;33.88;16.70;;;;;;;6.68;100.00;95539.59;4982985;28;20030;-88
2022/01/24 12:53:49;;;;;;;37.40;15.95;;;;;;;6.56;100.00;95538.69;4983132;28;20036;-88
2022/01/24 12:56:18;;;;;;;33.67;16.90;;;;;;;6.50;100.00;95541.13;4999100;28;20026;-88
2022/01/24 12:58:46;;;;;;;35.97;15.68;;;;;;;6.57;100.00;95537.69;4998937;28;20092;-88
2022/01/24 13:01:23;;;;;;;34.63;15.35;;;;;;;6.70;100.00;95529.75;4999062;28;20423;-88
2022/01/24 13:03:56;;;;;;;38.40;20.65;;;;;;;6.78;100.00;95536.50;4998487;28;20031;-87
2022/01/24 13:06:22;;;;;;;75.32;38.08;;;;;;;6.88;100.00;95536.78;5014761;28;20026;-87
2022/01/24 13:08:56;;;;;;;48.22;25.90;;;;;;;6.82;100.00;95536.88;4982462;28;20041;-88
2022/01/24 13:11:21;;;;;;;47.13;23.05;;;;;;;6.79;100.00;95532.88;4998555;28;20083;-85
2022/01/24 13:14:13;;;;;;;41.10;16.92;;;;;;;6.81;100.00;95530.84;4982458;28;20034;-87
2022/01/24 13:22:51;;;;;;;46.60;22.67;;;;;;;6.92;100.00;95535.38;4985095;28;20031;-88
2022/01/24 13:25:23;;;;;;;49.72;24.90;;;;;;;6.79;100.00;95533.66;4991613;28;20074;-88
2022/01/24 13:27:56;;;;;;;45.80;22.50;;;;;;;7.06;100.00;95536.03;4980087;28;20027;-88
2022/01/24 13:30:43;;;;;;;96.70;46.95;;;;;;;7.11;100.00;95543.19;4979841;28;20031;-86
2022/01/24 13:33:15;;;;;;;68.03;33.42;;;;;;;7.33;100.00;95542.78;4994795;28;20037;-88